sensor_id;sensor_type;location;lat;lon;timestamp;P1;durP1;ratioP1;P2;durP2;ratioP2
74624;SDS011;63131;52.298;8.056;2023-01-25T00:02:24;15.82;;;8.30;;
74624;SDS011;63131;52.298;8.056;2023-01-25T00:04:50;14.13;;;7.50;;
74624;SDS011;63131;52.298;8.056;2023-01-25T00:07:15;15.32;;;8.32;;
74624;SDS011;63131;52.298;8.056;2023-01-25T00:09:41;14.50;;;7.15;;
74624;SDS011;63131;52.298;8.056;2023-01-25T00:12:06;17.20;;;8.00;;
74624;SDS011;63131;52.298;8.056;2023-01-25T00:14:31;16.08;;;8.25;;
74624;SDS011;63131;52.298;8.056;2023-01-25T00:16:57;15.73;;;7.32;;
74624;SDS011;63131;52.298;8.056;2023-01-25T00:19:22;17.52;;;8.25;;
74624;SDS011;63131;52.298;8.056;2023-01-25T00:21:48;17.33;;;7.72;;
74624;SDS011;63131;52.298;8.056;2023-01-25T00:24:13;18.58;;;6.82;;
74624;SDS011;63131;52.298;8.056;2023-01-25T00:26:39;17.38;;;8.07;;
74624;SDS011;63131;52.298;8.056;2023-01-25T00:29:08;16.60;;;7.20;;
74624;SDS011;63131;52.298;8.056;2023-01-25T00:36:54;13.27;;;6.72;;
74624;SDS011;63131;52.298;8.056;2023-01-25T00:39:21;15.73;;;7.28;;
74624;SDS011;63131;52.298;8.056;2023-01-25T00:41:46;15.57;;;6.97;;
74624;SDS011;63131;52.298;8.056;2023-01-25T00:44:11;13.93;;;8.07;;
74624;SDS011;63131;52.298;8.056;2023-01-25T00:46:37;14.60;;;7.22;;
74624;SDS011;63131;52.298;8.056;2023-01-25T00:49:02;14.25;;;6.90;;
74624;SDS011;63131;52.298;8.056;2023-01-25T00:51:27;15.18;;;7.82;;
74624;SDS011;63131;52.298;8.056;2023-01-25T00:53:53;14.98;;;6.75;;
74624;SDS011;63131;52.298;8.056;2023-01-25T00:56:18;15.48;;;7.60;;
74624;SDS011;63131;52.298;8.056;2023-01-25T00:58:44;16.10;;;8.35;;
74624;SDS011;63131;52.298;8.056;2023-01-25T01:01:09;16.75;;;9.20;;
74624;SDS011;63131;52.298;8.056;2023-01-25T01:03:35;15.48;;;7.93;;
74624;SDS011;63131;52.298;8.056;2023-01-25T01:06:01;14.55;;;7.63;;
74624;SDS011;63131;52.298;8.056;2023-01-25T01:08:28;16.10;;;7.05;;
74624;SDS011;63131;52.298;8.056;2023-01-25T01:13:24;16.63;;;8.68;;
74624;SDS011;63131;52.298;8.056;2023-01-25T01:15:50;14.45;;;7.55;;
74624;SDS011;63131;52.298;8.056;2023-01-25T01:18:15;16.45;;;8.05;;
74624;SDS011;63131;52.298;8.056;2023-01-25T01:20:46;15.60;;;8.48;;
74624;SDS011;63131;52.298;8.056;2023-01-25T01:23:15;14.45;;;6.95;;
74624;SDS011;63131;52.298;8.056;2023-01-25T01:25:40;15.38;;;7.40;;
74624;SDS011;63131;52.298;8.056;2023-01-25T01:28:06;16.48;;;8.23;;
74624;SDS011;63131;52.298;8.056;2023-01-25T01:30:31;18.65;;;8.30;;
74624;SDS011;63131;52.298;8.056;2023-01-25T01:32:56;16.58;;;7.18;;
74624;SDS011;63131;52.298;8.056;2023-01-25T01:35:22;17.35;;;8.65;;
74624;SDS011;63131;52.298;8.056;2023-01-25T01:37:47;16.40;;;7.50;;
74624;SDS011;63131;52.298;8.056;2023-01-25T01:40:13;19.58;;;8.77;;
74624;SDS011;63131;52.298;8.056;2023-01-25T01:48:10;18.23;;;8.68;;
74624;SDS011;63131;52.298;8.056;2023-01-25T01:50:39;16.73;;;8.25;;
74624;SDS011;63131;52.298;8.056;2023-01-25T01:53:04;17.80;;;8.23;;
74624;SDS011;63131;52.298;8.056;2023-01-25T01:55:30;16.65;;;8.00;;
74624;SDS011;63131;52.298;8.056;2023-01-25T01:57:56;16.92;;;8.27;;
74624;SDS011;63131;52.298;8.056;2023-01-25T02:00:24;19.35;;;8.50;;
74624;SDS011;63131;52.298;8.056;2023-01-25T02:02:52;15.85;;;8.20;;
74624;SDS011;63131;52.298;8.056;2023-01-25T02:05:23;18.67;;;7.97;;
74624;SDS011;63131;52.298;8.056;2023-01-25T02:07:51;15.75;;;7.63;;
74624;SDS011;63131;52.298;8.056;2023-01-25T02:10:18;15.98;;;7.78;;
74624;SDS011;63131;52.298;8.056;2023-01-25T02:12:44;16.77;;;7.72;;
74624;SDS011;63131;52.298;8.056;2023-01-25T02:15:10;16.83;;;8.02;;
74624;SDS011;63131;52.298;8.056;2023-01-25T02:17:36;18.33;;;8.85;;
74624;SDS011;63131;52.298;8.056;2023-01-25T02:20:15;18.35;;;8.50;;
74624;SDS011;63131;52.298;8.056;2023-01-25T02:25:32;20.00;;;9.13;;
74624;SDS011;63131;52.298;8.056;2023-01-25T02:30:44;18.17;;;8.48;;
74624;SDS011;63131;52.298;8.056;2023-01-25T02:33:10;16.02;;;8.43;;
74624;SDS011;63131;52.298;8.056;2023-01-25T02:35:37;17.45;;;8.98;;
74624;SDS011;63131;52.298;8.056;2023-01-25T02:38:12;18.17;;;8.65;;
74624;SDS011;63131;52.298;8.056;2023-01-25T02:43:16;15.00;;;8.00;;
74624;SDS011;63131;52.298;8.056;2023-01-25T02:45:42;17.10;;;8.38;;
74624;SDS011;63131;52.298;8.056;2023-01-25T02:48:10;18.65;;;8.88;;
74624;SDS011;63131;52.298;8.056;2023-01-25T02:50:35;18.52;;;8.23;;
74624;SDS011;63131;52.298;8.056;2023-01-25T02:53:01;18.45;;;9.32;;
74624;SDS011;63131;52.298;8.056;2023-01-25T02:55:26;17.85;;;8.65;;
74624;SDS011;63131;52.298;8.056;2023-01-25T02:57:51;18.13;;;8.65;;
74624;SDS011;63131;52.298;8.056;2023-01-25T03:00:17;16.35;;;8.45;;
74624;SDS011;63131;52.298;8.056;2023-01-25T03:02:42;18.60;;;8.10;;
74624;SDS011;63131;52.298;8.056;2023-01-25T03:05:07;17.30;;;8.38;;
74624;SDS011;63131;52.298;8.056;2023-01-25T03:07:33;16.98;;;8.48;;
74624;SDS011;63131;52.298;8.056;2023-01-25T03:09:58;18.75;;;9.48;;
74624;SDS011;63131;52.298;8.056;2023-01-25T03:12:24;19.77;;;9.02;;
74624;SDS011;63131;52.298;8.056;2023-01-25T03:14:49;19.27;;;8.32;;
74624;SDS011;63131;52.298;8.056;2023-01-25T03:17:15;18.70;;;8.90;;
74624;SDS011;63131;52.298;8.056;2023-01-25T03:19:40;18.50;;;9.07;;
74624;SDS011;63131;52.298;8.056;2023-01-25T03:22:05;19.85;;;9.13;;
74624;SDS011;63131;52.298;8.056;2023-01-25T03:24:31;17.30;;;8.80;;
74624;SDS011;63131;52.298;8.056;2023-01-25T03:26:56;17.42;;;8.73;;
74624;SDS011;63131;52.298;8.056;2023-01-25T03:32:07;14.43;;;6.72;;
74624;SDS011;63131;52.298;8.056;2023-01-25T03:34:33;15.80;;;8.48;;
74624;SDS011;63131;52.298;8.056;2023-01-25T03:36:58;19.58;;;9.10;;
74624;SDS011;63131;52.298;8.056;2023-01-25T03:39:24;18.63;;;8.95;;
74624;SDS011;63131;52.298;8.056;2023-01-25T03:41:49;18.83;;;9.10;;
74624;SDS011;63131;52.298;8.056;2023-01-25T03:44:14;18.55;;;8.77;;
74624;SDS011;63131;52.298;8.056;2023-01-25T03:46:40;18.58;;;8.73;;
74624;SDS011;63131;52.298;8.056;2023-01-25T03:49:06;15.32;;;8.27;;
74624;SDS011;63131;52.298;8.056;2023-01-25T03:51:32;18.55;;;8.60;;
74624;SDS011;63131;52.298;8.056;2023-01-25T03:53:57;17.55;;;8.82;;
74624;SDS011;63131;52.298;8.056;2023-01-25T03:56:23;17.85;;;7.68;;
74624;SDS011;63131;52.298;8.056;2023-01-25T03:58:48;17.13;;;8.18;;
74624;SDS011;63131;52.298;8.056;2023-01-25T04:01:14;18.30;;;8.82;;
74624;SDS011;63131;52.298;8.056;2023-01-25T04:03:39;18.50;;;8.52;;
74624;SDS011;63131;52.298;8.056;2023-01-25T04:06:05;16.65;;;7.75;;
74624;SDS011;63131;52.298;8.056;2023-01-25T04:08:31;17.80;;;8.73;;
74624;SDS011;63131;52.298;8.056;2023-01-25T04:10:59;16.15;;;8.30;;
74624;SDS011;63131;52.298;8.056;2023-01-25T04:13:26;19.30;;;9.43;;
74624;SDS011;63131;52.298;8.056;2023-01-25T04:15:51;15.05;;;7.10;;
74624;SDS011;63131;52.298;8.056;2023-01-25T04:18:17;19.17;;;8.75;;
74624;SDS011;63131;52.298;8.056;2023-01-25T04:20:43;16.65;;;7.72;;
74624;SDS011;63131;52.298;8.056;2023-01-25T04:23:08;17.13;;;7.60;;
74624;SDS011;63131;52.298;8.056;2023-01-25T04:25:34;18.63;;;8.80;;
74624;SDS011;63131;52.298;8.056;2023-01-25T04:28:00;17.42;;;8.85;;
74624;SDS011;63131;52.298;8.056;2023-01-25T04:30:25;17.33;;;9.15;;
74624;SDS011;63131;52.298;8.056;2023-01-25T04:32:50;17.85;;;7.45;;
74624;SDS011;63131;52.298;8.056;2023-01-25T04:35:16;18.15;;;9.10;;
74624;SDS011;63131;52.298;8.056;2023-01-25T04:37:41;17.77;;;9.25;;
74624;SDS011;63131;52.298;8.056;2023-01-25T04:40:07;19.90;;;9.77;;
74624;SDS011;63131;52.298;8.056;2023-01-25T04:42:33;20.58;;;9.10;;
74624;SDS011;63131;52.298;8.056;2023-01-25T04:44:59;19.60;;;9.23;;
74624;SDS011;63131;52.298;8.056;2023-01-25T04:47:24;20.67;;;9.10;;
74624;SDS011;63131;52.298;8.056;2023-01-25T04:49:49;18.40;;;9.75;;
74624;SDS011;63131;52.298;8.056;2023-01-25T04:52:15;20.50;;;10.93;;
74624;SDS011;63131;52.298;8.056;2023-01-25T04:54:40;20.75;;;9.65;;
74624;SDS011;63131;52.298;8.056;2023-01-25T04:57:05;20.13;;;9.23;;
74624;SDS011;63131;52.298;8.056;2023-01-25T04:59:31;18.35;;;8.43;;
74624;SDS011;63131;52.298;8.056;2023-01-25T05:01:56;19.25;;;10.43;;
74624;SDS011;63131;52.298;8.056;2023-01-25T05:04:22;20.70;;;9.10;;
74624;SDS011;63131;52.298;8.056;2023-01-25T05:06:47;22.17;;;10.77;;
74624;SDS011;63131;52.298;8.056;2023-01-25T05:09:12;19.63;;;10.25;;
74624;SDS011;63131;52.298;8.056;2023-01-25T05:11:39;21.05;;;9.10;;
74624;SDS011;63131;52.298;8.056;2023-01-25T05:14:04;21.98;;;10.32;;
74624;SDS011;63131;52.298;8.056;2023-01-25T05:16:29;20.55;;;10.25;;
74624;SDS011;63131;52.298;8.056;2023-01-25T05:21:21;23.25;;;10.48;;
74624;SDS011;63131;52.298;8.056;2023-01-25T05:24:06;18.83;;;8.20;;
74624;SDS011;63131;52.298;8.056;2023-01-25T05:26:31;21.75;;;9.48;;
74624;SDS011;63131;52.298;8.056;2023-01-25T05:29:15;21.80;;;10.50;;
74624;SDS011;63131;52.298;8.056;2023-01-25T05:31:41;21.17;;;11.15;;
74624;SDS011;63131;52.298;8.056;2023-01-25T05:34:07;21.38;;;9.68;;
74624;SDS011;63131;52.298;8.056;2023-01-25T05:36:33;24.52;;;10.60;;
74624;SDS011;63131;52.298;8.056;2023-01-25T05:38:58;20.25;;;10.60;;
74624;SDS011;63131;52.298;8.056;2023-01-25T05:41:24;23.85;;;10.30;;
74624;SDS011;63131;52.298;8.056;2023-01-25T05:43:49;24.67;;;11.57;;
74624;SDS011;63131;52.298;8.056;2023-01-25T05:46:14;20.42;;;9.70;;
74624;SDS011;63131;52.298;8.056;2023-01-25T05:48:40;21.92;;;10.02;;
74624;SDS011;63131;52.298;8.056;2023-01-25T05:51:05;27.58;;;12.18;;
74624;SDS011;63131;52.298;8.056;2023-01-25T05:53:31;22.60;;;10.45;;
74624;SDS011;63131;52.298;8.056;2023-01-25T05:56:02;23.05;;;10.77;;
74624;SDS011;63131;52.298;8.056;2023-01-25T05:58:29;23.27;;;9.88;;
74624;SDS011;63131;52.298;8.056;2023-01-25T06:00:54;24.65;;;11.00;;
74624;SDS011;63131;52.298;8.056;2023-01-25T06:03:20;25.83;;;10.73;;
74624;SDS011;63131;52.298;8.056;2023-01-25T06:05:45;26.38;;;11.13;;
74624;SDS011;63131;52.298;8.056;2023-01-25T06:08:10;22.50;;;11.25;;
74624;SDS011;63131;52.298;8.056;2023-01-25T06:10:36;27.50;;;12.02;;
74624;SDS011;63131;52.298;8.056;2023-01-25T06:13:01;22.00;;;10.63;;
74624;SDS011;63131;52.298;8.056;2023-01-25T06:15:27;22.40;;;10.48;;
74624;SDS011;63131;52.298;8.056;2023-01-25T06:17:55;29.33;;;11.35;;
74624;SDS011;63131;52.298;8.056;2023-01-25T06:20:20;24.38;;;11.00;;
74624;SDS011;63131;52.298;8.056;2023-01-25T06:22:49;24.42;;;9.85;;
74624;SDS011;63131;52.298;8.056;2023-01-25T06:25:15;25.55;;;10.77;;
74624;SDS011;63131;52.298;8.056;2023-01-25T06:27:41;24.48;;;10.63;;
74624;SDS011;63131;52.298;8.056;2023-01-25T06:30:06;25.75;;;11.50;;
74624;SDS011;63131;52.298;8.056;2023-01-25T06:32:32;24.92;;;9.68;;
74624;SDS011;63131;52.298;8.056;2023-01-25T06:34:58;25.42;;;12.02;;
74624;SDS011;63131;52.298;8.056;2023-01-25T06:37:23;22.92;;;11.77;;
74624;SDS011;63131;52.298;8.056;2023-01-25T06:39:48;27.70;;;12.32;;
74624;SDS011;63131;52.298;8.056;2023-01-25T06:42:14;25.33;;;11.13;;
74624;SDS011;63131;52.298;8.056;2023-01-25T06:44:39;24.42;;;10.90;;
74624;SDS011;63131;52.298;8.056;2023-01-25T06:47:07;25.23;;;11.05;;
74624;SDS011;63131;52.298;8.056;2023-01-25T06:49:33;26.10;;;11.65;;
74624;SDS011;63131;52.298;8.056;2023-01-25T06:51:58;26.73;;;11.23;;
74624;SDS011;63131;52.298;8.056;2023-01-25T06:54:25;27.70;;;11.63;;
74624;SDS011;63131;52.298;8.056;2023-01-25T06:56:51;25.67;;;11.85;;
74624;SDS011;63131;52.298;8.056;2023-01-25T06:59:16;28.13;;;10.82;;
74624;SDS011;63131;52.298;8.056;2023-01-25T07:01:42;29.60;;;12.45;;
74624;SDS011;63131;52.298;8.056;2023-01-25T07:04:07;26.95;;;12.93;;
74624;SDS011;63131;52.298;8.056;2023-01-25T07:06:35;30.73;;;12.65;;
74624;SDS011;63131;52.298;8.056;2023-01-25T07:09:01;33.35;;;14.63;;
74624;SDS011;63131;52.298;8.056;2023-01-25T07:11:37;31.02;;;13.02;;
74624;SDS011;63131;52.298;8.056;2023-01-25T07:14:03;31.15;;;12.95;;
74624;SDS011;63131;52.298;8.056;2023-01-25T07:16:29;28.58;;;13.15;;
74624;SDS011;63131;52.298;8.056;2023-01-25T07:19:01;29.90;;;13.43;;
74624;SDS011;63131;52.298;8.056;2023-01-25T07:21:29;30.13;;;13.82;;
74624;SDS011;63131;52.298;8.056;2023-01-25T07:23:55;28.58;;;14.07;;
74624;SDS011;63131;52.298;8.056;2023-01-25T07:26:24;32.20;;;14.10;;
74624;SDS011;63131;52.298;8.056;2023-01-25T07:28:50;30.58;;;15.18;;
74624;SDS011;63131;52.298;8.056;2023-01-25T07:31:16;28.10;;;12.63;;
74624;SDS011;63131;52.298;8.056;2023-01-25T07:36:08;29.63;;;11.45;;
74624;SDS011;63131;52.298;8.056;2023-01-25T07:38:34;26.13;;;11.82;;
74624;SDS011;63131;52.298;8.056;2023-01-25T07:41:00;32.13;;;12.05;;
74624;SDS011;63131;52.298;8.056;2023-01-25T07:43:26;31.23;;;13.88;;
74624;SDS011;63131;52.298;8.056;2023-01-25T07:45:53;29.17;;;13.02;;
74624;SDS011;63131;52.298;8.056;2023-01-25T07:48:19;25.13;;;11.30;;
74624;SDS011;63131;52.298;8.056;2023-01-25T07:50:44;33.40;;;12.82;;
74624;SDS011;63131;52.298;8.056;2023-01-25T07:53:13;29.63;;;12.95;;
74624;SDS011;63131;52.298;8.056;2023-01-25T07:55:39;26.25;;;11.80;;
74624;SDS011;63131;52.298;8.056;2023-01-25T07:58:05;31.25;;;13.25;;
74624;SDS011;63131;52.298;8.056;2023-01-25T08:00:30;30.63;;;13.30;;
74624;SDS011;63131;52.298;8.056;2023-01-25T08:02:56;28.92;;;11.25;;
74624;SDS011;63131;52.298;8.056;2023-01-25T08:05:21;27.17;;;12.00;;
74624;SDS011;63131;52.298;8.056;2023-01-25T08:07:47;32.55;;;14.27;;
74624;SDS011;63131;52.298;8.056;2023-01-25T08:10:13;31.45;;;12.05;;
74624;SDS011;63131;52.298;8.056;2023-01-25T08:12:39;30.58;;;12.98;;
74624;SDS011;63131;52.298;8.056;2023-01-25T08:15:04;29.63;;;12.13;;
74624;SDS011;63131;52.298;8.056;2023-01-25T08:17:30;29.10;;;12.85;;
74624;SDS011;63131;52.298;8.056;2023-01-25T08:20:00;34.38;;;14.13;;
74624;SDS011;63131;52.298;8.056;2023-01-25T08:22:26;33.72;;;12.98;;
74624;SDS011;63131;52.298;8.056;2023-01-25T08:24:52;34.47;;;13.20;;
74624;SDS011;63131;52.298;8.056;2023-01-25T08:27:18;29.08;;;11.88;;
74624;SDS011;63131;52.298;8.056;2023-01-25T08:29:44;29.77;;;13.15;;
74624;SDS011;63131;52.298;8.056;2023-01-25T08:32:09;33.58;;;15.70;;
74624;SDS011;63131;52.298;8.056;2023-01-25T08:34:35;34.03;;;13.88;;
74624;SDS011;63131;52.298;8.056;2023-01-25T08:37:00;32.38;;;14.35;;
74624;SDS011;63131;52.298;8.056;2023-01-25T08:39:25;32.67;;;14.13;;
74624;SDS011;63131;52.298;8.056;2023-01-25T08:41:51;32.92;;;12.68;;
74624;SDS011;63131;52.298;8.056;2023-01-25T08:44:17;34.35;;;16.48;;
74624;SDS011;63131;52.298;8.056;2023-01-25T08:46:46;33.45;;;12.48;;
74624;SDS011;63131;52.298;8.056;2023-01-25T08:49:12;32.15;;;12.98;;
74624;SDS011;63131;52.298;8.056;2023-01-25T08:51:38;31.15;;;13.68;;
74624;SDS011;63131;52.298;8.056;2023-01-25T08:54:08;34.33;;;14.85;;
74624;SDS011;63131;52.298;8.056;2023-01-25T08:56:36;32.53;;;15.68;;
74624;SDS011;63131;52.298;8.056;2023-01-25T08:59:02;29.42;;;13.95;;
74624;SDS011;63131;52.298;8.056;2023-01-25T09:01:27;30.98;;;14.10;;
74624;SDS011;63131;52.298;8.056;2023-01-25T09:03:53;31.05;;;14.88;;
74624;SDS011;63131;52.298;8.056;2023-01-25T09:06:18;29.02;;;13.93;;
74624;SDS011;63131;52.298;8.056;2023-01-25T09:08:44;29.88;;;12.25;;
74624;SDS011;63131;52.298;8.056;2023-01-25T09:11:14;31.42;;;14.05;;
74624;SDS011;63131;52.298;8.056;2023-01-25T09:13:41;31.92;;;15.20;;
74624;SDS011;63131;52.298;8.056;2023-01-25T09:16:08;29.92;;;13.70;;
74624;SDS011;63131;52.298;8.056;2023-01-25T09:18:39;32.63;;;14.77;;
74624;SDS011;63131;52.298;8.056;2023-01-25T09:21:12;31.13;;;12.30;;
74624;SDS011;63131;52.298;8.056;2023-01-25T09:23:39;28.60;;;12.70;;
74624;SDS011;63131;52.298;8.056;2023-01-25T09:26:08;27.30;;;12.15;;
74624;SDS011;63131;52.298;8.056;2023-01-25T09:28:34;29.83;;;14.10;;
74624;SDS011;63131;52.298;8.056;2023-01-25T09:31:01;33.38;;;14.20;;
74624;SDS011;63131;52.298;8.056;2023-01-25T09:33:29;27.77;;;14.18;;
74624;SDS011;63131;52.298;8.056;2023-01-25T09:35:58;30.40;;;13.93;;
74624;SDS011;63131;52.298;8.056;2023-01-25T09:38:24;29.77;;;12.05;;
74624;SDS011;63131;52.298;8.056;2023-01-25T09:40:54;25.27;;;13.52;;
74624;SDS011;63131;52.298;8.056;2023-01-25T09:54:57;30.58;;;12.68;;
74624;SDS011;63131;52.298;8.056;2023-01-25T09:57:30;31.83;;;12.75;;
74624;SDS011;63131;52.298;8.056;2023-01-25T09:59:58;27.00;;;12.07;;
74624;SDS011;63131;52.298;8.056;2023-01-25T10:04:59;26.95;;;12.38;;
74624;SDS011;63131;52.298;8.056;2023-01-25T10:09:59;31.63;;;11.25;;
74624;SDS011;63131;52.298;8.056;2023-01-25T10:12:31;27.05;;;12.45;;
74624;SDS011;63131;52.298;8.056;2023-01-25T10:15:00;28.85;;;13.45;;
74624;SDS011;63131;52.298;8.056;2023-01-25T10:20:19;27.67;;;12.23;;
74624;SDS011;63131;52.298;8.056;2023-01-25T10:23:35;26.50;;;12.80;;
74624;SDS011;63131;52.298;8.056;2023-01-25T10:25:57;26.00;;;10.82;;
74624;SDS011;63131;52.298;8.056;2023-01-25T10:28:29;27.20;;;11.02;;
74624;SDS011;63131;52.298;8.056;2023-01-25T10:31:13;24.42;;;11.38;;
74624;SDS011;63131;52.298;8.056;2023-01-25T10:33:42;24.92;;;11.38;;
74624;SDS011;63131;52.298;8.056;2023-01-25T10:36:11;25.40;;;11.90;;
74624;SDS011;63131;52.298;8.056;2023-01-25T10:38:44;26.88;;;11.90;;
74624;SDS011;63131;52.298;8.056;2023-01-25T10:41:13;24.08;;;11.20;;
74624;SDS011;63131;52.298;8.056;2023-01-25T10:43:44;28.15;;;13.20;;
74624;SDS011;63131;52.298;8.056;2023-01-25T10:46:20;29.55;;;13.55;;
74624;SDS011;63131;52.298;8.056;2023-01-25T10:48:47;26.48;;;12.38;;
74624;SDS011;63131;52.298;8.056;2023-01-25T10:51:32;28.33;;;11.93;;
74624;SDS011;63131;52.298;8.056;2023-01-25T10:54:03;26.27;;;12.35;;
74624;SDS011;63131;52.298;8.056;2023-01-25T10:56:31;24.75;;;11.15;;
74624;SDS011;63131;52.298;8.056;2023-01-25T10:59:05;27.10;;;10.95;;
74624;SDS011;63131;52.298;8.056;2023-01-25T11:01:34;23.88;;;10.98;;
74624;SDS011;63131;52.298;8.056;2023-01-25T11:04:01;21.15;;;10.48;;
74624;SDS011;63131;52.298;8.056;2023-01-25T11:06:31;24.15;;;10.60;;
74624;SDS011;63131;52.298;8.056;2023-01-25T11:09:46;20.70;;;9.30;;
74624;SDS011;63131;52.298;8.056;2023-01-25T11:14:22;22.50;;;9.60;;
74624;SDS011;63131;52.298;8.056;2023-01-25T11:16:50;21.13;;;9.93;;
74624;SDS011;63131;52.298;8.056;2023-01-25T11:19:35;24.40;;;10.15;;
74624;SDS011;63131;52.298;8.056;2023-01-25T11:22:22;21.23;;;10.32;;
74624;SDS011;63131;52.298;8.056;2023-01-25T11:24:50;23.27;;;9.48;;
74624;SDS011;63131;52.298;8.056;2023-01-25T11:27:17;22.02;;;9.68;;
74624;SDS011;63131;52.298;8.056;2023-01-25T11:29:45;22.10;;;9.75;;
74624;SDS011;63131;52.298;8.056;2023-01-25T11:32:34;23.83;;;11.45;;
74624;SDS011;63131;52.298;8.056;2023-01-25T11:34:59;24.92;;;10.43;;
74624;SDS011;63131;52.298;8.056;2023-01-25T11:42:55;24.73;;;12.10;;
74624;SDS011;63131;52.298;8.056;2023-01-25T11:51:19;21.67;;;10.50;;
74624;SDS011;63131;52.298;8.056;2023-01-25T12:06:58;27.17;;;13.15;;
74624;SDS011;63131;52.298;8.056;2023-01-25T12:09:31;24.73;;;10.35;;
74624;SDS011;63131;52.298;8.056;2023-01-25T12:12:40;27.60;;;12.55;;
74624;SDS011;63131;52.298;8.056;2023-01-25T12:15:16;25.95;;;12.20;;
74624;SDS011;63131;52.298;8.056;2023-01-25T12:21:16;28.52;;;11.35;;
74624;SDS011;63131;52.298;8.056;2023-01-25T12:23:59;24.67;;;11.52;;
74624;SDS011;63131;52.298;8.056;2023-01-25T12:29:28;25.75;;;10.90;;
74624;SDS011;63131;52.298;8.056;2023-01-25T12:34:29;26.75;;;12.27;;
74624;SDS011;63131;52.298;8.056;2023-01-25T12:36:55;25.77;;;11.95;;
74624;SDS011;63131;52.298;8.056;2023-01-25T12:39:26;29.10;;;13.20;;
74624;SDS011;63131;52.298;8.056;2023-01-25T12:41:57;25.15;;;11.90;;
74624;SDS011;63131;52.298;8.056;2023-01-25T12:44:30;24.27;;;10.50;;
74624;SDS011;63131;52.298;8.056;2023-01-25T12:54:58;24.70;;;10.95;;
74624;SDS011;63131;52.298;8.056;2023-01-25T13:00:02;25.80;;;11.15;;
74624;SDS011;63131;52.298;8.056;2023-01-25T13:13:01;27.55;;;11.43;;
74624;SDS011;63131;52.298;8.056;2023-01-25T13:15:35;24.95;;;10.15;;
74624;SDS011;63131;52.298;8.056;2023-01-25T13:20:49;26.52;;;11.93;;
74624;SDS011;63131;52.298;8.056;2023-01-25T13:23:28;27.52;;;11.48;;
74624;SDS011;63131;52.298;8.056;2023-01-25T13:26:15;27.25;;;11.73;;
74624;SDS011;63131;52.298;8.056;2023-01-25T13:28:44;23.45;;;11.00;;
74624;SDS011;63131;52.298;8.056;2023-01-25T13:31:36;29.55;;;11.75;;
74624;SDS011;63131;52.298;8.056;2023-01-25T13:34:01;26.10;;;11.43;;
74624;SDS011;63131;52.298;8.056;2023-01-25T13:39:38;25.98;;;11.13;;
74624;SDS011;63131;52.298;8.056;2023-01-25T13:41:56;25.00;;;11.43;;
74624;SDS011;63131;52.298;8.056;2023-01-25T13:44:26;26.48;;;11.02;;
74624;SDS011;63131;52.298;8.056;2023-01-25T13:46:53;27.38;;;13.07;;
74624;SDS011;63131;52.298;8.056;2023-01-25T13:49:21;28.48;;;12.07;;
74624;SDS011;63131;52.298;8.056;2023-01-25T13:51:49;29.13;;;13.65;;
74624;SDS011;63131;52.298;8.056;2023-01-25T13:54:15;25.92;;;13.25;;
74624;SDS011;63131;52.298;8.056;2023-01-25T13:56:41;29.63;;;12.15;;
74624;SDS011;63131;52.298;8.056;2023-01-25T13:59:20;29.33;;;13.23;;
74624;SDS011;63131;52.298;8.056;2023-01-25T14:01:47;23.88;;;10.32;;
74624;SDS011;63131;52.298;8.056;2023-01-25T14:04:13;28.38;;;12.43;;
74624;SDS011;63131;52.298;8.056;2023-01-25T14:06:38;26.45;;;12.65;;
74624;SDS011;63131;52.298;8.056;2023-01-25T14:09:05;26.08;;;12.48;;
74624;SDS011;63131;52.298;8.056;2023-01-25T14:11:42;27.98;;;12.70;;
74624;SDS011;63131;52.298;8.056;2023-01-25T14:14:17;28.83;;;12.63;;
74624;SDS011;63131;52.298;8.056;2023-01-25T14:16:59;26.95;;;12.50;;
74624;SDS011;63131;52.298;8.056;2023-01-25T14:19:42;24.55;;;12.40;;
74624;SDS011;63131;52.298;8.056;2023-01-25T14:24:59;22.17;;;9.88;;
74624;SDS011;63131;52.298;8.056;2023-01-25T14:27:28;24.50;;;11.80;;
74624;SDS011;63131;52.298;8.056;2023-01-25T14:29:54;27.58;;;11.98;;
74624;SDS011;63131;52.298;8.056;2023-01-25T14:32:19;26.45;;;12.27;;
74624;SDS011;63131;52.298;8.056;2023-01-25T14:34:46;24.55;;;10.95;;
74624;SDS011;63131;52.298;8.056;2023-01-25T14:37:16;25.95;;;12.32;;
74624;SDS011;63131;52.298;8.056;2023-01-25T14:39:43;25.33;;;11.77;;
74624;SDS011;63131;52.298;8.056;2023-01-25T14:42:09;26.83;;;11.52;;
74624;SDS011;63131;52.298;8.056;2023-01-25T14:44:35;25.52;;;10.13;;
74624;SDS011;63131;52.298;8.056;2023-01-25T14:53:18;23.88;;;11.27;;
74624;SDS011;63131;52.298;8.056;2023-01-25T14:55:45;23.10;;;11.05;;
74624;SDS011;63131;52.298;8.056;2023-01-25T14:58:11;23.05;;;12.00;;
74624;SDS011;63131;52.298;8.056;2023-01-25T15:00:41;27.48;;;11.88;;
74624;SDS011;63131;52.298;8.056;2023-01-25T15:03:12;28.75;;;12.63;;
74624;SDS011;63131;52.298;8.056;2023-01-25T15:05:43;22.92;;;10.43;;
74624;SDS011;63131;52.298;8.056;2023-01-25T15:10:36;25.13;;;13.30;;
74624;SDS011;63131;52.298;8.056;2023-01-25T15:15:32;28.88;;;12.40;;
74624;SDS011;63131;52.298;8.056;2023-01-25T15:17:59;29.00;;;11.93;;
74624;SDS011;63131;52.298;8.056;2023-01-25T15:20:26;27.88;;;14.07;;
74624;SDS011;63131;52.298;8.056;2023-01-25T15:22:52;26.55;;;12.73;;
74624;SDS011;63131;52.298;8.056;2023-01-25T15:25:18;28.52;;;13.82;;
74624;SDS011;63131;52.298;8.056;2023-01-25T15:27:43;25.70;;;12.30;;
74624;SDS011;63131;52.298;8.056;2023-01-25T15:30:12;27.92;;;12.43;;
74624;SDS011;63131;52.298;8.056;2023-01-25T15:32:38;29.33;;;12.20;;
74624;SDS011;63131;52.298;8.056;2023-01-25T15:35:04;28.08;;;10.77;;
74624;SDS011;63131;52.298;8.056;2023-01-25T15:37:31;29.92;;;12.20;;
74624;SDS011;63131;52.298;8.056;2023-01-25T15:39:56;29.13;;;11.73;;
74624;SDS011;63131;52.298;8.056;2023-01-25T15:42:21;29.63;;;13.48;;
74624;SDS011;63131;52.298;8.056;2023-01-25T15:44:47;25.77;;;11.65;;
74624;SDS011;63131;52.298;8.056;2023-01-25T15:47:12;28.20;;;10.95;;
74624;SDS011;63131;52.298;8.056;2023-01-25T15:49:37;26.95;;;12.02;;
74624;SDS011;63131;52.298;8.056;2023-01-25T15:52:03;28.42;;;12.70;;
74624;SDS011;63131;52.298;8.056;2023-01-25T15:54:30;27.58;;;11.65;;
74624;SDS011;63131;52.298;8.056;2023-01-25T15:56:56;25.85;;;10.90;;
74624;SDS011;63131;52.298;8.056;2023-01-25T15:59:22;32.17;;;12.02;;
74624;SDS011;63131;52.298;8.056;2023-01-25T16:01:47;30.40;;;12.80;;
74624;SDS011;63131;52.298;8.056;2023-01-25T16:04:13;31.05;;;12.70;;
74624;SDS011;63131;52.298;8.056;2023-01-25T16:09:16;29.50;;;13.05;;
74624;SDS011;63131;52.298;8.056;2023-01-25T16:11:43;28.17;;;13.65;;
74624;SDS011;63131;52.298;8.056;2023-01-25T16:16:37;35.43;;;14.03;;
74624;SDS011;63131;52.298;8.056;2023-01-25T16:19:16;30.70;;;12.75;;
74624;SDS011;63131;52.298;8.056;2023-01-25T16:21:43;35.78;;;15.05;;
74624;SDS011;63131;52.298;8.056;2023-01-25T16:24:09;36.83;;;14.65;;
74624;SDS011;63131;52.298;8.056;2023-01-25T16:26:36;33.33;;;13.13;;
74624;SDS011;63131;52.298;8.056;2023-01-25T16:29:03;33.35;;;13.68;;
74624;SDS011;63131;52.298;8.056;2023-01-25T16:31:28;32.10;;;13.10;;
74624;SDS011;63131;52.298;8.056;2023-01-25T16:33:54;35.15;;;14.88;;
74624;SDS011;63131;52.298;8.056;2023-01-25T16:36:20;36.35;;;14.38;;
74624;SDS011;63131;52.298;8.056;2023-01-25T16:38:46;36.55;;;13.68;;
74624;SDS011;63131;52.298;8.056;2023-01-25T16:41:12;32.40;;;12.35;;